Estación Meteorológica Peña el Pijo (Robertgarden) [ 12/11/19 23:05:49 CET ]

Fecha Hora Presion(HPa) Temp (°C) Humedad % Rocio (°C) Viento ( m/s) Direccion Lluvia 1Hora(mm) Lluvia 24H(mm) LLuvia Total(mm)
2019-Aug-28 01:01:33 1012.000 15.8 75 11.4         385.10
2019-Aug-28 02:01:57 1012.000 14.4 78 10.6         385.10
2019-Aug-28 03:02:10 1011.600 14.3 79 10.7         385.10
2019-Aug-28 04:02:15 1011.400 13.1 81 9.9         385.10
2019-Aug-28 05:02:03 1011.300 12.3 83 9.5         385.10
2019-Aug-28 06:05:09 1011.400 11.8 85 9.3         385.10
2019-Aug-28 07:01:46 1011.500 11.4 86 9.1         385.10
2019-Aug-28 08:01:46 1011.700 11.9 86 9.6         385.10
2019-Aug-28 09:01:57 1011.900 16.1 86 13.8         385.10
2019-Aug-28 10:01:52 1012.000 22.4 70 16.6         385.10
2019-Aug-28 11:02:00 1011.900 25.3 51 14.4         385.10
2019-Aug-28 12:01:24 1012.000 26.8 43 13.1         385.10
2019-Aug-28 13:01:27 1011.900 28.6 37 12.0         385.10
2019-Aug-28 14:01:29 1011.800 32.3 32 13.4         385.10
2019-Aug-28 15:01:56 1011.300 33.3 31 13.9         385.10
2019-Aug-28 16:01:25 1010.900 32.8 28 11.8         385.10
2019-Aug-28 17:01:49 1010.600 33.8 26 11.4 1.7 WSW     385.10
2019-Aug-28 18:01:51 1010.600 32.3 27 10.8         385.10
2019-Aug-28 19:01:54 1010.500 29.3 36 12.6         385.10
2019-Aug-28 20:01:51 1010.600 25.9 43 12.3         385.10
2019-Aug-28 21:01:51 1011.300 23.3 54 13.4         385.10
2019-Aug-28 22:01:39 1012.200 21.2 61 13.4         385.10
2019-Aug-28 23:01:47 1013.100 19.6 67 13.3         385.10

Temperatura Máxima:33°    Temperatura Mínima:11°
Presión Máxima:1013.100 Hpa    Presión Mínima:1010.500 Hpa


Volver